sensor_id;sensor_type;location;lat;lon;timestamp;temperature;humidity
8896;DHT22;4484;48.928;10.066;2023-11-18T00:01:52;4.10;99.90
8896;DHT22;4484;48.928;10.066;2023-11-18T00:04:19;4.20;99.90
8896;DHT22;4484;48.928;10.066;2023-11-18T00:06:46;4.20;99.90
8896;DHT22;4484;48.928;10.066;2023-11-18T00:09:13;4.20;99.90
8896;DHT22;4484;48.928;10.066;2023-11-18T00:11:41;4.20;99.90
8896;DHT22;4484;48.928;10.066;2023-11-18T00:14:10;4.20;99.90
8896;DHT22;4484;48.928;10.066;2023-11-18T00:16:38;4.20;99.90
8896;DHT22;4484;48.928;10.066;2023-11-18T00:19:05;4.20;99.90
8896;DHT22;4484;48.928;10.066;2023-11-18T00:21:33;4.20;99.90
8896;DHT22;4484;48.928;10.066;2023-11-18T00:24:00;4.20;99.90
8896;DHT22;4484;48.928;10.066;2023-11-18T00:26:27;4.20;99.90
8896;DHT22;4484;48.928;10.066;2023-11-18T00:28:58;4.20;99.90
8896;DHT22;4484;48.928;10.066;2023-11-18T00:31:27;4.20;99.90
8896;DHT22;4484;48.928;10.066;2023-11-18T00:33:55;4.20;99.90
8896;DHT22;4484;48.928;10.066;2023-11-18T00:36:22;4.20;99.90
8896;DHT22;4484;48.928;10.066;2023-11-18T00:38:49;4.20;99.90
8896;DHT22;4484;48.928;10.066;2023-11-18T00:41:16;4.20;99.90
8896;DHT22;4484;48.928;10.066;2023-11-18T00:43:44;4.20;99.90
8896;DHT22;4484;48.928;10.066;2023-11-18T00:46:11;4.20;99.90
8896;DHT22;4484;48.928;10.066;2023-11-18T00:48:38;4.20;99.90
8896;DHT22;4484;48.928;10.066;2023-11-18T00:51:06;4.20;99.90
8896;DHT22;4484;48.928;10.066;2023-11-18T00:53:33;4.20;99.90
8896;DHT22;4484;48.928;10.066;2023-11-18T00:56:00;4.20;99.90
8896;DHT22;4484;48.928;10.066;2023-11-18T00:58:28;4.20;99.90
8896;DHT22;4484;48.928;10.066;2023-11-18T01:00:56;4.20;99.90
8896;DHT22;4484;48.928;10.066;2023-11-18T01:03:23;4.20;99.90
8896;DHT22;4484;48.928;10.066;2023-11-18T01:05:50;4.20;99.90
8896;DHT22;4484;48.928;10.066;2023-11-18T01:08:18;4.20;99.90
8896;DHT22;4484;48.928;10.066;2023-11-18T01:10:45;4.20;99.90
8896;DHT22;4484;48.928;10.066;2023-11-18T01:13:12;4.20;99.90
8896;DHT22;4484;48.928;10.066;2023-11-18T01:15:39;4.20;99.90
8896;DHT22;4484;48.928;10.066;2023-11-18T01:18:06;4.20;99.90
8896;DHT22;4484;48.928;10.066;2023-11-18T01:20:34;4.20;99.90
8896;DHT22;4484;48.928;10.066;2023-11-18T01:23:01;4.20;99.90
8896;DHT22;4484;48.928;10.066;2023-11-18T01:25:28;4.20;99.90
8896;DHT22;4484;48.928;10.066;2023-11-18T01:27:56;4.20;99.90
8896;DHT22;4484;48.928;10.066;2023-11-18T01:30:23;4.20;99.90
8896;DHT22;4484;48.928;10.066;2023-11-18T01:32:50;4.20;99.90
8896;DHT22;4484;48.928;10.066;2023-11-18T01:35:18;4.20;99.90
8896;DHT22;4484;48.928;10.066;2023-11-18T01:37:46;4.20;99.90
8896;DHT22;4484;48.928;10.066;2023-11-18T01:40:16;4.20;99.90
8896;DHT22;4484;48.928;10.066;2023-11-18T01:42:46;4.20;99.90
8896;DHT22;4484;48.928;10.066;2023-11-18T01:45:13;4.20;99.90
8896;DHT22;4484;48.928;10.066;2023-11-18T01:47:41;4.20;99.90
8896;DHT22;4484;48.928;10.066;2023-11-18T01:50:10;4.20;99.90
8896;DHT22;4484;48.928;10.066;2023-11-18T01:52:40;4.20;99.90
8896;DHT22;4484;48.928;10.066;2023-11-18T01:55:12;4.20;99.90
8896;DHT22;4484;48.928;10.066;2023-11-18T01:57:40;4.20;99.90
8896;DHT22;4484;48.928;10.066;2023-11-18T02:00:12;4.20;99.90
8896;DHT22;4484;48.928;10.066;2023-11-18T02:02:40;4.20;99.90
8896;DHT22;4484;48.928;10.066;2023-11-18T02:05:08;4.30;99.90
8896;DHT22;4484;48.928;10.066;2023-11-18T02:07:35;4.20;99.90
8896;DHT22;4484;48.928;10.066;2023-11-18T02:10:04;4.20;99.90
8896;DHT22;4484;48.928;10.066;2023-11-18T02:12:57;4.20;99.90
8896;DHT22;4484;48.928;10.066;2023-11-18T02:15:30;4.20;99.90
8896;DHT22;4484;48.928;10.066;2023-11-18T02:17:59;4.20;99.90
8896;DHT22;4484;48.928;10.066;2023-11-18T02:20:29;4.20;99.90
8896;DHT22;4484;48.928;10.066;2023-11-18T02:22:57;4.20;99.90
8896;DHT22;4484;48.928;10.066;2023-11-18T02:25:27;4.20;99.90
8896;DHT22;4484;48.928;10.066;2023-11-18T02:27:56;4.20;99.90
8896;DHT22;4484;48.928;10.066;2023-11-18T02:30:23;4.20;99.90
8896;DHT22;4484;48.928;10.066;2023-11-18T02:33:03;4.20;99.90
8896;DHT22;4484;48.928;10.066;2023-11-18T02:35:38;4.20;99.90
8896;DHT22;4484;48.928;10.066;2023-11-18T02:38:08;4.10;99.90
8896;DHT22;4484;48.928;10.066;2023-11-18T02:40:41;4.10;99.90
8896;DHT22;4484;48.928;10.066;2023-11-18T02:43:11;4.10;99.90
8896;DHT22;4484;48.928;10.066;2023-11-18T02:45:38;4.10;99.90
8896;DHT22;4484;48.928;10.066;2023-11-18T02:48:07;4.10;99.90
8896;DHT22;4484;48.928;10.066;2023-11-18T02:50:34;4.00;99.90
8896;DHT22;4484;48.928;10.066;2023-11-18T02:53:05;4.00;99.90
8896;DHT22;4484;48.928;10.066;2023-11-18T02:55:32;4.00;99.90
8896;DHT22;4484;48.928;10.066;2023-11-18T02:58:01;4.00;99.90
8896;DHT22;4484;48.928;10.066;2023-11-18T03:00:33;4.00;99.90
8896;DHT22;4484;48.928;10.066;2023-11-18T03:03:00;4.00;99.90
8896;DHT22;4484;48.928;10.066;2023-11-18T03:05:27;4.00;99.90
8896;DHT22;4484;48.928;10.066;2023-11-18T03:07:54;4.00;99.90
8896;DHT22;4484;48.928;10.066;2023-11-18T03:10:24;4.00;99.90
8896;DHT22;4484;48.928;10.066;2023-11-18T03:12:53;3.90;99.90
8896;DHT22;4484;48.928;10.066;2023-11-18T03:15:21;3.90;99.90
8896;DHT22;4484;48.928;10.066;2023-11-18T03:17:50;3.90;99.90
8896;DHT22;4484;48.928;10.066;2023-11-18T03:20:19;3.90;99.90
8896;DHT22;4484;48.928;10.066;2023-11-18T03:22:47;3.90;99.90
8896;DHT22;4484;48.928;10.066;2023-11-18T03:25:14;3.90;99.90
8896;DHT22;4484;48.928;10.066;2023-11-18T03:27:42;3.90;99.90
8896;DHT22;4484;48.928;10.066;2023-11-18T03:30:09;3.90;99.90
8896;DHT22;4484;48.928;10.066;2023-11-18T03:32:38;3.90;99.90
8896;DHT22;4484;48.928;10.066;2023-11-18T03:35:06;3.90;99.90
8896;DHT22;4484;48.928;10.066;2023-11-18T03:37:36;4.00;99.90
8896;DHT22;4484;48.928;10.066;2023-11-18T03:40:13;4.00;99.90
8896;DHT22;4484;48.928;10.066;2023-11-18T03:42:44;4.00;99.90
8896;DHT22;4484;48.928;10.066;2023-11-18T03:45:14;4.00;99.90
8896;DHT22;4484;48.928;10.066;2023-11-18T03:47:47;4.00;99.90
8896;DHT22;4484;48.928;10.066;2023-11-18T03:50:17;4.00;99.90
8896;DHT22;4484;48.928;10.066;2023-11-18T03:52:44;4.00;99.90
8896;DHT22;4484;48.928;10.066;2023-11-18T03:55:11;4.00;99.90
8896;DHT22;4484;48.928;10.066;2023-11-18T03:57:38;4.00;99.90
8896;DHT22;4484;48.928;10.066;2023-11-18T04:00:06;4.00;99.90
8896;DHT22;4484;48.928;10.066;2023-11-18T04:02:36;4.10;99.90
8896;DHT22;4484;48.928;10.066;2023-11-18T04:05:05;4.10;99.90
8896;DHT22;4484;48.928;10.066;2023-11-18T04:07:32;4.10;99.90
8896;DHT22;4484;48.928;10.066;2023-11-18T04:09:59;4.10;99.90
8896;DHT22;4484;48.928;10.066;2023-11-18T04:12:27;4.10;99.90
8896;DHT22;4484;48.928;10.066;2023-11-18T04:14:54;4.10;99.90
8896;DHT22;4484;48.928;10.066;2023-11-18T04:17:21;4.10;99.90
8896;DHT22;4484;48.928;10.066;2023-11-18T04:19:48;4.10;99.90
8896;DHT22;4484;48.928;10.066;2023-11-18T04:22:15;4.10;99.90
8896;DHT22;4484;48.928;10.066;2023-11-18T04:24:42;4.10;99.90
8896;DHT22;4484;48.928;10.066;2023-11-18T04:27:10;4.10;99.90
8896;DHT22;4484;48.928;10.066;2023-11-18T04:29:37;4.10;99.90
8896;DHT22;4484;48.928;10.066;2023-11-18T04:32:05;4.10;99.90
8896;DHT22;4484;48.928;10.066;2023-11-18T04:34:35;4.10;99.90
8896;DHT22;4484;48.928;10.066;2023-11-18T04:37:03;4.10;99.90
8896;DHT22;4484;48.928;10.066;2023-11-18T04:39:34;4.10;99.90
8896;DHT22;4484;48.928;10.066;2023-11-18T04:42:02;4.00;99.90
8896;DHT22;4484;48.928;10.066;2023-11-18T04:44:29;4.00;99.90
8896;DHT22;4484;48.928;10.066;2023-11-18T04:46:58;4.10;99.90
8896;DHT22;4484;48.928;10.066;2023-11-18T04:49:25;4.00;99.90
8896;DHT22;4484;48.928;10.066;2023-11-18T04:51:52;4.00;99.90
8896;DHT22;4484;48.928;10.066;2023-11-18T04:54:19;4.00;99.90
8896;DHT22;4484;48.928;10.066;2023-11-18T04:56:46;4.00;99.90
8896;DHT22;4484;48.928;10.066;2023-11-18T04:59:14;4.00;99.90
8896;DHT22;4484;48.928;10.066;2023-11-18T05:01:41;4.00;99.90
8896;DHT22;4484;48.928;10.066;2023-11-18T05:04:09;4.00;99.90
8896;DHT22;4484;48.928;10.066;2023-11-18T05:06:36;4.00;99.90
8896;DHT22;4484;48.928;10.066;2023-11-18T05:09:03;4.00;99.90
8896;DHT22;4484;48.928;10.066;2023-11-18T05:11:34;4.00;99.90
8896;DHT22;4484;48.928;10.066;2023-11-18T05:14:02;4.00;99.90
8896;DHT22;4484;48.928;10.066;2023-11-18T05:16:34;3.90;99.90
8896;DHT22;4484;48.928;10.066;2023-11-18T05:19:01;4.00;99.90
8896;DHT22;4484;48.928;10.066;2023-11-18T05:21:28;3.90;99.90
8896;DHT22;4484;48.928;10.066;2023-11-18T05:23:55;3.90;99.90
8896;DHT22;4484;48.928;10.066;2023-11-18T05:26:22;3.90;99.90
8896;DHT22;4484;48.928;10.066;2023-11-18T05:28:49;3.90;99.90
8896;DHT22;4484;48.928;10.066;2023-11-18T05:31:17;3.90;99.90
8896;DHT22;4484;48.928;10.066;2023-11-18T05:33:45;3.90;99.90
8896;DHT22;4484;48.928;10.066;2023-11-18T05:36:18;3.90;99.90
8896;DHT22;4484;48.928;10.066;2023-11-18T05:38:54;3.90;99.90
8896;DHT22;4484;48.928;10.066;2023-11-18T05:41:21;3.80;99.90
8896;DHT22;4484;48.928;10.066;2023-11-18T05:43:55;3.80;99.90
8896;DHT22;4484;48.928;10.066;2023-11-18T05:46:25;3.80;99.90
8896;DHT22;4484;48.928;10.066;2023-11-18T05:48:56;3.80;99.90
8896;DHT22;4484;48.928;10.066;2023-11-18T05:51:26;3.80;99.90
8896;DHT22;4484;48.928;10.066;2023-11-18T05:53:53;3.80;99.90
8896;DHT22;4484;48.928;10.066;2023-11-18T05:56:20;3.80;99.90
8896;DHT22;4484;48.928;10.066;2023-11-18T05:58:52;3.80;99.90
8896;DHT22;4484;48.928;10.066;2023-11-18T06:01:22;3.80;99.90
8896;DHT22;4484;48.928;10.066;2023-11-18T06:03:50;3.80;99.90
8896;DHT22;4484;48.928;10.066;2023-11-18T06:06:18;3.80;99.90
8896;DHT22;4484;48.928;10.066;2023-11-18T06:08:50;3.70;99.90
8896;DHT22;4484;48.928;10.066;2023-11-18T06:11:19;3.70;99.90
8896;DHT22;4484;48.928;10.066;2023-11-18T06:13:48;3.70;99.90
8896;DHT22;4484;48.928;10.066;2023-11-18T06:16:18;3.70;99.90
8896;DHT22;4484;48.928;10.066;2023-11-18T06:18:55;3.70;99.90
8896;DHT22;4484;48.928;10.066;2023-11-18T06:21:24;3.70;99.90
8896;DHT22;4484;48.928;10.066;2023-11-18T06:23:55;3.70;99.90
8896;DHT22;4484;48.928;10.066;2023-11-18T06:26:23;3.70;99.90
8896;DHT22;4484;48.928;10.066;2023-11-18T06:28:54;3.70;99.90
8896;DHT22;4484;48.928;10.066;2023-11-18T06:31:22;3.70;99.90
8896;DHT22;4484;48.928;10.066;2023-11-18T06:33:50;3.70;99.90
8896;DHT22;4484;48.928;10.066;2023-11-18T06:36:19;3.70;99.90
8896;DHT22;4484;48.928;10.066;2023-11-18T06:38:50;3.70;99.90
8896;DHT22;4484;48.928;10.066;2023-11-18T06:41:19;3.70;99.90
8896;DHT22;4484;48.928;10.066;2023-11-18T06:43:46;3.70;99.90
8896;DHT22;4484;48.928;10.066;2023-11-18T06:46:27;3.70;99.90
8896;DHT22;4484;48.928;10.066;2023-11-18T06:48:56;3.70;99.90
8896;DHT22;4484;48.928;10.066;2023-11-18T06:51:26;3.70;99.90
8896;DHT22;4484;48.928;10.066;2023-11-18T06:53:55;3.70;99.90
8896;DHT22;4484;48.928;10.066;2023-11-18T06:56:26;3.70;99.90
8896;DHT22;4484;48.928;10.066;2023-11-18T06:58:54;3.70;99.90
8896;DHT22;4484;48.928;10.066;2023-11-18T07:01:21;3.70;99.90
8896;DHT22;4484;48.928;10.066;2023-11-18T07:03:48;3.70;99.90
8896;DHT22;4484;48.928;10.066;2023-11-18T07:06:19;3.70;99.90
8896;DHT22;4484;48.928;10.066;2023-11-18T07:08:50;3.70;99.90
8896;DHT22;4484;48.928;10.066;2023-11-18T07:11:18;3.70;99.90
8896;DHT22;4484;48.928;10.066;2023-11-18T07:13:46;3.70;99.90
8896;DHT22;4484;48.928;10.066;2023-11-18T07:16:14;3.70;99.90
8896;DHT22;4484;48.928;10.066;2023-11-18T07:18:41;3.70;99.90
8896;DHT22;4484;48.928;10.066;2023-11-18T07:21:11;3.70;99.90
8896;DHT22;4484;48.928;10.066;2023-11-18T07:23:38;3.70;99.90
8896;DHT22;4484;48.928;10.066;2023-11-18T07:26:05;3.80;99.90
8896;DHT22;4484;48.928;10.066;2023-11-18T07:28:32;3.80;99.90
8896;DHT22;4484;48.928;10.066;2023-11-18T07:30:59;3.80;99.90
8896;DHT22;4484;48.928;10.066;2023-11-18T07:33:31;3.80;99.90
8896;DHT22;4484;48.928;10.066;2023-11-18T07:35:59;3.70;99.90
8896;DHT22;4484;48.928;10.066;2023-11-18T07:38:26;3.70;99.90
8896;DHT22;4484;48.928;10.066;2023-11-18T07:40:54;3.70;99.90
8896;DHT22;4484;48.928;10.066;2023-11-18T07:43:23;3.70;99.90
8896;DHT22;4484;48.928;10.066;2023-11-18T07:45:50;3.70;99.90
8896;DHT22;4484;48.928;10.066;2023-11-18T07:48:19;3.70;99.90
8896;DHT22;4484;48.928;10.066;2023-11-18T07:50:47;3.70;99.90
8896;DHT22;4484;48.928;10.066;2023-11-18T07:53:14;3.80;99.90
8896;DHT22;4484;48.928;10.066;2023-11-18T07:55:42;3.80;99.90
8896;DHT22;4484;48.928;10.066;2023-11-18T07:58:10;3.80;99.90
8896;DHT22;4484;48.928;10.066;2023-11-18T08:00:41;3.90;99.90
8896;DHT22;4484;48.928;10.066;2023-11-18T08:03:09;4.00;99.90
8896;DHT22;4484;48.928;10.066;2023-11-18T08:05:42;4.20;99.90
8896;DHT22;4484;48.928;10.066;2023-11-18T08:08:12;4.30;99.90
8896;DHT22;4484;48.928;10.066;2023-11-18T08:10:40;4.40;99.90
8896;DHT22;4484;48.928;10.066;2023-11-18T08:13:08;4.40;99.90
8896;DHT22;4484;48.928;10.066;2023-11-18T08:15:39;4.50;99.90
8896;DHT22;4484;48.928;10.066;2023-11-18T08:18:08;4.50;99.90
8896;DHT22;4484;48.928;10.066;2023-11-18T08:20:37;4.60;99.90
8896;DHT22;4484;48.928;10.066;2023-11-18T08:23:04;4.60;99.90
8896;DHT22;4484;48.928;10.066;2023-11-18T08:25:31;4.70;99.90
8896;DHT22;4484;48.928;10.066;2023-11-18T08:28:03;4.80;99.90
8896;DHT22;4484;48.928;10.066;2023-11-18T08:30:31;4.90;99.90
8896;DHT22;4484;48.928;10.066;2023-11-18T08:33:01;5.10;99.90
8896;DHT22;4484;48.928;10.066;2023-11-18T08:35:32;5.20;99.90
8896;DHT22;4484;48.928;10.066;2023-11-18T08:37:59;5.30;99.90
8896;DHT22;4484;48.928;10.066;2023-11-18T08:40:28;5.30;99.90
8896;DHT22;4484;48.928;10.066;2023-11-18T08:42:55;5.30;99.90
8896;DHT22;4484;48.928;10.066;2023-11-18T08:45:24;5.40;99.90
8896;DHT22;4484;48.928;10.066;2023-11-18T08:47:59;5.40;99.90
8896;DHT22;4484;48.928;10.066;2023-11-18T08:50:28;5.60;99.90
8896;DHT22;4484;48.928;10.066;2023-11-18T08:52:55;5.60;99.90
8896;DHT22;4484;48.928;10.066;2023-11-18T08:55:30;5.60;99.90
8896;DHT22;4484;48.928;10.066;2023-11-18T08:58:12;5.70;99.90
8896;DHT22;4484;48.928;10.066;2023-11-18T09:03:23;5.90;99.90
8896;DHT22;4484;48.928;10.066;2023-11-18T09:06:05;6.00;99.90
8896;DHT22;4484;48.928;10.066;2023-11-18T09:08:37;6.10;99.90
8896;DHT22;4484;48.928;10.066;2023-11-18T09:11:13;6.20;99.90
8896;DHT22;4484;48.928;10.066;2023-11-18T09:13:45;6.20;99.90
8896;DHT22;4484;48.928;10.066;2023-11-18T09:16:14;6.30;99.90
8896;DHT22;4484;48.928;10.066;2023-11-18T09:18:43;6.30;99.90
8896;DHT22;4484;48.928;10.066;2023-11-18T09:21:14;6.40;99.90
8896;DHT22;4484;48.928;10.066;2023-11-18T09:23:43;6.60;99.90
8896;DHT22;4484;48.928;10.066;2023-11-18T09:26:11;6.70;99.90
8896;DHT22;4484;48.928;10.066;2023-11-18T09:28:38;6.90;99.90
8896;DHT22;4484;48.928;10.066;2023-11-18T09:31:06;7.20;99.90
8896;DHT22;4484;48.928;10.066;2023-11-18T09:33:39;7.40;99.90
8896;DHT22;4484;48.928;10.066;2023-11-18T09:36:12;7.60;99.90
8896;DHT22;4484;48.928;10.066;2023-11-18T09:38:40;7.90;99.90
8896;DHT22;4484;48.928;10.066;2023-11-18T09:41:09;8.20;99.90
8896;DHT22;4484;48.928;10.066;2023-11-18T09:43:39;8.40;99.90
8896;DHT22;4484;48.928;10.066;2023-11-18T09:46:17;8.70;99.90
8896;DHT22;4484;48.928;10.066;2023-11-18T09:48:51;9.00;99.90
8896;DHT22;4484;48.928;10.066;2023-11-18T09:51:27;9.30;99.90
8896;DHT22;4484;48.928;10.066;2023-11-18T09:54:01;9.50;99.90
8896;DHT22;4484;48.928;10.066;2023-11-18T09:59:32;9.90;99.90
8896;DHT22;4484;48.928;10.066;2023-11-18T10:02:03;10.10;99.90
8896;DHT22;4484;48.928;10.066;2023-11-18T10:04:38;10.30;99.90
8896;DHT22;4484;48.928;10.066;2023-11-18T10:07:06;10.50;99.90
8896;DHT22;4484;48.928;10.066;2023-11-18T10:09:37;10.90;99.90
8896;DHT22;4484;48.928;10.066;2023-11-18T10:12:09;11.30;99.90
8896;DHT22;4484;48.928;10.066;2023-11-18T10:14:42;11.60;99.90
8896;DHT22;4484;48.928;10.066;2023-11-18T10:17:10;11.80;99.90
8896;DHT22;4484;48.928;10.066;2023-11-18T10:19:55;11.90;99.90
8896;DHT22;4484;48.928;10.066;2023-11-18T10:22:39;12.00;99.90
8896;DHT22;4484;48.928;10.066;2023-11-18T10:25:08;12.30;99.90
8896;DHT22;4484;48.928;10.066;2023-11-18T10:27:34;12.50;99.90
8896;DHT22;4484;48.928;10.066;2023-11-18T10:30:05;12.50;99.90
8896;DHT22;4484;48.928;10.066;2023-11-18T10:32:59;12.30;99.90
8896;DHT22;4484;48.928;10.066;2023-11-18T10:35:33;12.10;99.90
8896;DHT22;4484;48.928;10.066;2023-11-18T10:38:04;11.90;99.90
8896;DHT22;4484;48.928;10.066;2023-11-18T10:40:34;11.80;99.90
8896;DHT22;4484;48.928;10.066;2023-11-18T10:43:04;11.70;99.90
8896;DHT22;4484;48.928;10.066;2023-11-18T10:45:37;11.50;99.90
8896;DHT22;4484;48.928;10.066;2023-11-18T10:48:11;11.40;99.90
8896;DHT22;4484;48.928;10.066;2023-11-18T10:50:39;11.20;99.90
8896;DHT22;4484;48.928;10.066;2023-11-18T10:53:06;11.00;99.90
8896;DHT22;4484;48.928;10.066;2023-11-18T10:55:38;10.80;99.90
8896;DHT22;4484;48.928;10.066;2023-11-18T10:58:07;10.70;99.90
8896;DHT22;4484;48.928;10.066;2023-11-18T11:00:47;10.60;99.90
8896;DHT22;4484;48.928;10.066;2023-11-18T11:03:16;10.60;99.90
8896;DHT22;4484;48.928;10.066;2023-11-18T11:05:43;10.50;99.90
8896;DHT22;4484;48.928;10.066;2023-11-18T11:08:17;10.30;99.90
8896;DHT22;4484;48.928;10.066;2023-11-18T11:10:59;10.10;99.90
8896;DHT22;4484;48.928;10.066;2023-11-18T11:13:31;9.90;99.90
8896;DHT22;4484;48.928;10.066;2023-11-18T11:16:00;9.80;99.90
8896;DHT22;4484;48.928;10.066;2023-11-18T11:18:34;9.70;99.90
8896;DHT22;4484;48.928;10.066;2023-11-18T11:21:09;9.60;99.90
8896;DHT22;4484;48.928;10.066;2023-11-18T11:24:03;9.70;99.90
8896;DHT22;4484;48.928;10.066;2023-11-18T11:27:46;9.70;99.90
8896;DHT22;4484;48.928;10.066;2023-11-18T11:29:59;9.80;99.90
8896;DHT22;4484;48.928;10.066;2023-11-18T11:35:40;9.70;99.90
8896;DHT22;4484;48.928;10.066;2023-11-18T11:38:16;9.70;99.90
8896;DHT22;4484;48.928;10.066;2023-11-18T11:40:46;9.60;99.90
8896;DHT22;4484;48.928;10.066;2023-11-18T11:43:14;9.60;99.90
8896;DHT22;4484;48.928;10.066;2023-11-18T11:45:52;9.50;99.90
8896;DHT22;4484;48.928;10.066;2023-11-18T11:48:24;9.50;99.90
8896;DHT22;4484;48.928;10.066;2023-11-18T11:51:27;9.40;99.90
8896;DHT22;4484;48.928;10.066;2023-11-18T11:54:11;9.40;99.90
8896;DHT22;4484;48.928;10.066;2023-11-18T11:56:45;9.30;99.90
8896;DHT22;4484;48.928;10.066;2023-11-18T12:02:33;9.10;99.90
8896;DHT22;4484;48.928;10.066;2023-11-18T12:05:02;9.00;99.90
8896;DHT22;4484;48.928;10.066;2023-11-18T12:07:34;9.00;99.90
8896;DHT22;4484;48.928;10.066;2023-11-18T12:10:08;9.10;99.90
8896;DHT22;4484;48.928;10.066;2023-11-18T12:12:40;9.10;99.90
8896;DHT22;4484;48.928;10.066;2023-11-18T12:15:09;9.10;99.90
8896;DHT22;4484;48.928;10.066;2023-11-18T12:20:41;9.20;99.90
8896;DHT22;4484;48.928;10.066;2023-11-18T12:23:15;9.20;99.90
8896;DHT22;4484;48.928;10.066;2023-11-18T12:25:46;9.20;99.90
8896;DHT22;4484;48.928;10.066;2023-11-18T12:28:16;9.10;99.90
8896;DHT22;4484;48.928;10.066;2023-11-18T12:30:45;9.10;99.90
8896;DHT22;4484;48.928;10.066;2023-11-18T12:33:25;9.10;99.90
8896;DHT22;4484;48.928;10.066;2023-11-18T12:36:58;9.00;99.90
8896;DHT22;4484;48.928;10.066;2023-11-18T12:41:41;8.80;99.90
8896;DHT22;4484;48.928;10.066;2023-11-18T12:44:30;8.80;99.90
8896;DHT22;4484;48.928;10.066;2023-11-18T12:47:03;8.70;99.90
8896;DHT22;4484;48.928;10.066;2023-11-18T12:49:42;8.60;99.90
8896;DHT22;4484;48.928;10.066;2023-11-18T12:52:11;8.60;99.90
8896;DHT22;4484;48.928;10.066;2023-11-18T12:54:39;8.50;99.90
8896;DHT22;4484;48.928;10.066;2023-11-18T12:57:10;8.50;99.90
8896;DHT22;4484;48.928;10.066;2023-11-18T12:59:42;8.60;99.90
8896;DHT22;4484;48.928;10.066;2023-11-18T13:02:10;8.60;99.90
8896;DHT22;4484;48.928;10.066;2023-11-18T13:04:51;8.70;99.90
8896;DHT22;4484;48.928;10.066;2023-11-18T13:07:20;8.70;99.90
8896;DHT22;4484;48.928;10.066;2023-11-18T13:09:50;8.70;99.90
8896;DHT22;4484;48.928;10.066;2023-11-18T13:12:17;8.70;99.90
8896;DHT22;4484;48.928;10.066;2023-11-18T13:14:47;8.70;99.90
8896;DHT22;4484;48.928;10.066;2023-11-18T13:17:15;8.50;99.90
8896;DHT22;4484;48.928;10.066;2023-11-18T13:19:43;8.40;99.90
8896;DHT22;4484;48.928;10.066;2023-11-18T13:22:14;8.30;99.90
8896;DHT22;4484;48.928;10.066;2023-11-18T13:24:43;8.30;99.90
8896;DHT22;4484;48.928;10.066;2023-11-18T13:27:15;8.30;99.90
8896;DHT22;4484;48.928;10.066;2023-11-18T13:29:49;8.30;99.90
8896;DHT22;4484;48.928;10.066;2023-11-18T13:32:18;8.20;99.90
8896;DHT22;4484;48.928;10.066;2023-11-18T13:34:50;8.20;99.90
8896;DHT22;4484;48.928;10.066;2023-11-18T13:37:18;8.20;99.90
8896;DHT22;4484;48.928;10.066;2023-11-18T13:39:56;8.20;99.90
8896;DHT22;4484;48.928;10.066;2023-11-18T13:42:26;8.20;99.90
8896;DHT22;4484;48.928;10.066;2023-11-18T13:45:07;8.10;99.90
8896;DHT22;4484;48.928;10.066;2023-11-18T13:47:38;8.10;99.90
8896;DHT22;4484;48.928;10.066;2023-11-18T13:50:09;8.00;99.90
8896;DHT22;4484;48.928;10.066;2023-11-18T13:52:37;8.00;99.90
8896;DHT22;4484;48.928;10.066;2023-11-18T13:55:07;7.90;99.90
8896;DHT22;4484;48.928;10.066;2023-11-18T13:57:35;7.90;99.90
8896;DHT22;4484;48.928;10.066;2023-11-18T14:00:03;7.80;99.90
8896;DHT22;4484;48.928;10.066;2023-11-18T14:02:33;7.70;99.90
8896;DHT22;4484;48.928;10.066;2023-11-18T14:05:03;7.60;99.90
8896;DHT22;4484;48.928;10.066;2023-11-18T14:07:37;7.50;99.90
8896;DHT22;4484;48.928;10.066;2023-11-18T14:10:05;7.50;99.90
8896;DHT22;4484;48.928;10.066;2023-11-18T14:12:35;7.30;99.90
8896;DHT22;4484;48.928;10.066;2023-11-18T14:15:02;7.20;99.90
8896;DHT22;4484;48.928;10.066;2023-11-18T14:17:30;7.20;99.90
8896;DHT22;4484;48.928;10.066;2023-11-18T14:19:57;7.00;99.90
8896;DHT22;4484;48.928;10.066;2023-11-18T14:22:25;6.90;99.90
8896;DHT22;4484;48.928;10.066;2023-11-18T14:24:52;6.80;99.90
8896;DHT22;4484;48.928;10.066;2023-11-18T14:27:20;6.70;99.90
8896;DHT22;4484;48.928;10.066;2023-11-18T14:29:47;6.60;99.90
8896;DHT22;4484;48.928;10.066;2023-11-18T14:32:14;6.60;99.90
8896;DHT22;4484;48.928;10.066;2023-11-18T14:34:42;6.50;99.90
8896;DHT22;4484;48.928;10.066;2023-11-18T14:37:08;6.40;99.90
8896;DHT22;4484;48.928;10.066;2023-11-18T14:39:35;6.30;99.90
8896;DHT22;4484;48.928;10.066;2023-11-18T14:42:03;6.20;99.90
8896;DHT22;4484;48.928;10.066;2023-11-18T14:44:31;6.10;99.90
8896;DHT22;4484;48.928;10.066;2023-11-18T14:46:58;6.10;99.90
8896;DHT22;4484;48.928;10.066;2023-11-18T14:49:27;6.00;99.90
8896;DHT22;4484;48.928;10.066;2023-11-18T14:51:54;6.00;99.90
8896;DHT22;4484;48.928;10.066;2023-11-18T14:54:21;6.00;99.90
8896;DHT22;4484;48.928;10.066;2023-11-18T14:56:48;5.90;99.90
8896;DHT22;4484;48.928;10.066;2023-11-18T14:59:16;5.90;99.90
8896;DHT22;4484;48.928;10.066;2023-11-18T15:01:42;5.80;99.90
8896;DHT22;4484;48.928;10.066;2023-11-18T15:04:11;5.70;99.90
8896;DHT22;4484;48.928;10.066;2023-11-18T15:06:39;5.70;99.90
8896;DHT22;4484;48.928;10.066;2023-11-18T15:09:07;5.70;99.90
8896;DHT22;4484;48.928;10.066;2023-11-18T15:11:37;5.60;99.90
8896;DHT22;4484;48.928;10.066;2023-11-18T15:14:04;5.70;99.90
8896;DHT22;4484;48.928;10.066;2023-11-18T15:16:34;5.60;99.90
8896;DHT22;4484;48.928;10.066;2023-11-18T15:19:01;5.60;99.90
8896;DHT22;4484;48.928;10.066;2023-11-18T15:21:28;5.60;99.90
8896;DHT22;4484;48.928;10.066;2023-11-18T15:23:56;5.50;99.90
8896;DHT22;4484;48.928;10.066;2023-11-18T15:26:28;5.40;99.90
8896;DHT22;4484;48.928;10.066;2023-11-18T15:28:58;5.40;99.90
8896;DHT22;4484;48.928;10.066;2023-11-18T15:31:26;5.40;99.90
8896;DHT22;4484;48.928;10.066;2023-11-18T15:33:56;5.40;99.90
8896;DHT22;4484;48.928;10.066;2023-11-18T15:36:23;5.30;99.90
8896;DHT22;4484;48.928;10.066;2023-11-18T15:38:52;5.30;99.90
8896;DHT22;4484;48.928;10.066;2023-11-18T15:41:19;5.30;99.90
8896;DHT22;4484;48.928;10.066;2023-11-18T15:43:46;5.30;99.90
8896;DHT22;4484;48.928;10.066;2023-11-18T15:46:15;5.20;99.90
8896;DHT22;4484;48.928;10.066;2023-11-18T15:48:42;5.20;99.90
8896;DHT22;4484;48.928;10.066;2023-11-18T15:51:09;5.20;99.90
8896;DHT22;4484;48.928;10.066;2023-11-18T15:53:39;5.20;99.90
8896;DHT22;4484;48.928;10.066;2023-11-18T15:56:07;5.20;99.90
8896;DHT22;4484;48.928;10.066;2023-11-18T15:58:35;5.10;99.90
8896;DHT22;4484;48.928;10.066;2023-11-18T16:01:03;5.10;99.90
8896;DHT22;4484;48.928;10.066;2023-11-18T16:03:30;5.10;99.90
8896;DHT22;4484;48.928;10.066;2023-11-18T16:05:57;5.10;99.90
8896;DHT22;4484;48.928;10.066;2023-11-18T16:08:24;5.10;99.90
8896;DHT22;4484;48.928;10.066;2023-11-18T16:10:52;5.10;99.90
8896;DHT22;4484;48.928;10.066;2023-11-18T16:13:21;5.20;99.90
8896;DHT22;4484;48.928;10.066;2023-11-18T16:15:48;5.10;99.90
8896;DHT22;4484;48.928;10.066;2023-11-18T16:18:15;5.10;99.90
8896;DHT22;4484;48.928;10.066;2023-11-18T16:20:42;5.10;99.90
8896;DHT22;4484;48.928;10.066;2023-11-18T16:23:10;5.10;99.90
8896;DHT22;4484;48.928;10.066;2023-11-18T16:25:37;5.10;99.90
8896;DHT22;4484;48.928;10.066;2023-11-18T16:28:04;5.10;99.90
8896;DHT22;4484;48.928;10.066;2023-11-18T16:30:34;5.10;99.90
8896;DHT22;4484;48.928;10.066;2023-11-18T16:33:02;5.10;99.90
8896;DHT22;4484;48.928;10.066;2023-11-18T16:35:31;5.10;99.90